createdAt,value
2022-10-10T00:01:32.716Z,40.10
2022-10-10T00:06:52.932Z,40.10
2022-10-10T00:12:13.027Z,40.10
2022-10-10T00:17:33.240Z,40.10
2022-10-10T00:22:53.853Z,40.10
2022-10-10T00:28:14.348Z,40.10
2022-10-10T00:33:34.414Z,40.10
2022-10-10T00:38:54.636Z,40.10
2022-10-10T00:44:14.787Z,40.10
2022-10-10T00:49:34.918Z,40.10
2022-10-10T00:54:54.983Z,40.10
2022-10-10T01:00:15.083Z,40.10
2022-10-10T01:05:35.124Z,40.10
2022-10-10T01:10:55.375Z,40.10
2022-10-10T01:16:15.637Z,40.10
2022-10-10T01:21:35.804Z,40.10
2022-10-10T01:26:56.038Z,40.10
2022-10-10T01:32:16.320Z,40.10
2022-10-10T01:37:36.627Z,40.00
2022-10-10T01:42:56.731Z,40.00
2022-10-10T01:48:16.962Z,40.00
2022-10-10T01:53:37.091Z,40.00
2022-10-10T01:58:57.363Z,40.00
2022-10-10T02:04:17.434Z,40.10
2022-10-10T02:09:37.589Z,40.10
2022-10-10T02:14:57.650Z,40.10
2022-10-10T02:20:17.915Z,40.10
2022-10-10T02:25:38.100Z,40.10
2022-10-10T02:30:58.148Z,40.00
2022-10-10T02:36:18.248Z,40.10
2022-10-10T02:41:38.362Z,40.10
2022-10-10T02:46:58.594Z,40.10
2022-10-10T02:52:18.887Z,40.10
2022-10-10T02:57:38.950Z,40.10
2022-10-10T03:02:59.152Z,40.00
2022-10-10T03:08:19.155Z,40.10
2022-10-10T03:13:39.396Z,40.10
2022-10-10T03:18:59.420Z,40.00
2022-10-10T03:24:19.680Z,40.00
2022-10-10T03:29:39.744Z,40.00
2022-10-10T03:34:59.787Z,40.00
2022-10-10T03:40:20.073Z,40.00
2022-10-10T03:45:40.298Z,40.00
2022-10-10T03:51:00.396Z,40.00
2022-10-10T03:56:20.494Z,40.00
2022-10-10T04:01:40.783Z,40.00
2022-10-10T04:07:00.889Z,40.00
2022-10-10T04:12:21.000Z,40.00
2022-10-10T04:17:41.230Z,40.00
2022-10-10T04:23:01.293Z,40.10
2022-10-10T04:28:21.523Z,40.00
2022-10-10T04:33:41.712Z,40.10
2022-10-10T04:39:02.010Z,40.10
2022-10-10T04:44:22.190Z,40.10
2022-10-10T04:49:42.457Z,40.10
2022-10-10T04:55:02.433Z,40.10
2022-10-10T05:00:22.508Z,40.10
2022-10-10T05:05:42.603Z,40.10
2022-10-10T05:11:02.831Z,40.10
2022-10-10T05:16:22.977Z,40.10
2022-10-10T05:21:43.219Z,40.10
2022-10-10T05:27:03.408Z,40.10
2022-10-10T05:32:23.711Z,40.10
2022-10-10T05:37:43.997Z,40.10
2022-10-10T05:43:04.158Z,40.10
2022-10-10T05:48:24.288Z,40.20
2022-10-10T05:53:44.520Z,40.10
2022-10-10T05:59:04.671Z,40.20
2022-10-10T06:04:24.928Z,40.20
2022-10-10T06:09:44.989Z,40.20
2022-10-10T06:15:05.131Z,40.20
2022-10-10T06:20:25.284Z,40.20
2022-10-10T06:25:45.435Z,40.20
2022-10-10T06:31:05.615Z,40.20
2022-10-10T06:36:25.763Z,40.10
2022-10-10T06:41:45.874Z,40.20
2022-10-10T06:47:05.970Z,40.20
2022-10-10T06:52:26.593Z,40.20
2022-10-10T06:57:46.584Z,40.20
2022-10-10T07:03:06.784Z,40.30
2022-10-10T07:08:27.051Z,40.20
2022-10-10T07:13:47.318Z,40.20
2022-10-10T07:19:07.418Z,40.30
2022-10-10T07:24:27.600Z,40.20
2022-10-10T07:29:47.607Z,40.20
2022-10-10T07:35:07.917Z,40.20
2022-10-10T07:40:28.016Z,40.20
2022-10-10T07:45:48.059Z,40.20
2022-10-10T07:51:08.143Z,40.20
2022-10-10T07:56:28.193Z,40.30
2022-10-10T08:01:48.472Z,40.20
2022-10-10T08:07:08.449Z,40.30
2022-10-10T08:12:28.433Z,40.30
2022-10-10T08:17:48.894Z,40.30
2022-10-10T08:23:09.139Z,40.30
2022-10-10T08:28:29.424Z,40.30
2022-10-10T08:33:49.408Z,40.30
2022-10-10T08:39:09.543Z,40.30
2022-10-10T08:44:29.665Z,40.30
2022-10-10T08:49:49.841Z,40.40
2022-10-10T08:55:09.971Z,40.40
2022-10-10T09:00:30.495Z,40.40
2022-10-10T09:05:50.302Z,40.40
2022-10-10T09:11:10.518Z,40.40
2022-10-10T09:16:30.600Z,40.40
2022-10-10T09:21:50.910Z,40.40
2022-10-10T09:27:10.770Z,40.40
2022-10-10T09:32:31.013Z,40.50
2022-10-10T09:37:51.105Z,40.50
2022-10-10T09:43:11.221Z,40.50
2022-10-10T09:48:31.251Z,40.50
2022-10-10T09:53:51.526Z,40.50
2022-10-10T09:59:11.580Z,40.60
2022-10-10T10:04:31.708Z,40.50
2022-10-10T10:09:51.843Z,40.60
2022-10-10T10:15:12.020Z,40.60
2022-10-10T10:20:32.180Z,40.60
2022-10-10T10:25:52.439Z,40.60
2022-10-10T10:31:12.623Z,40.60
2022-10-10T10:36:32.691Z,40.60
2022-10-10T10:41:52.744Z,41.20
2022-10-10T10:47:12.937Z,41.00
2022-10-10T10:52:33.118Z,41.10
2022-10-10T10:58:22.448Z,41.20
2022-10-10T11:05:21.275Z,41.60
2022-10-10T11:09:31.142Z,41.70
2022-10-10T11:14:51.620Z,41.60
2022-10-10T11:20:12.106Z,41.10
2022-10-10T11:25:32.419Z,41.00
2022-10-10T11:30:52.584Z,41.20
2022-10-10T11:36:12.671Z,41.20
2022-10-10T11:41:32.801Z,41.20
2022-10-10T11:46:52.988Z,41.20
2022-10-10T11:52:32.530Z,41.20
2022-10-10T11:57:53.005Z,41.10
2022-10-10T12:03:13.115Z,41.00
2022-10-10T12:08:33.127Z,40.90
2022-10-10T12:13:53.251Z,40.90
2022-10-10T12:19:13.410Z,40.90
2022-10-10T12:24:33.525Z,40.90
2022-10-10T12:29:53.747Z,40.90
2022-10-10T12:35:13.684Z,40.90
2022-10-10T12:40:34.039Z,40.90
2022-10-10T12:45:53.960Z,40.90
2022-10-10T12:51:14.535Z,40.90
2022-10-10T12:56:34.702Z,40.90
2022-10-10T13:01:54.820Z,40.90
2022-10-10T13:07:14.814Z,40.90
2022-10-10T13:12:34.985Z,40.90
2022-10-10T13:17:55.051Z,40.90
2022-10-10T13:23:15.349Z,40.90
2022-10-10T13:28:35.527Z,40.90
2022-10-10T13:33:55.722Z,41.00
2022-10-10T13:39:15.809Z,41.00
2022-10-10T13:44:36.092Z,41.00
2022-10-10T13:49:56.148Z,41.00
2022-10-10T13:55:16.298Z,41.00
2022-10-10T14:00:36.410Z,41.00
2022-10-10T14:05:56.667Z,41.10
2022-10-10T14:11:16.747Z,41.10
2022-10-10T14:16:37.010Z,41.10
2022-10-10T14:21:57.064Z,41.40
2022-10-10T14:27:17.181Z,42.30
2022-10-10T14:32:37.299Z,42.90
2022-10-10T14:37:57.471Z,42.80
2022-10-10T14:43:17.514Z,42.60
2022-10-10T14:48:37.711Z,42.50
2022-10-10T14:54:11.961Z,42.40
2022-10-10T14:59:47.126Z,42.20
2022-10-10T15:05:09.006Z,42.20
2022-10-10T15:10:34.103Z,42.00
2022-10-10T15:15:54.775Z,41.90
2022-10-10T15:21:15.162Z,41.80
2022-10-10T15:26:35.345Z,41.90
2022-10-10T15:31:55.514Z,41.90
2022-10-10T15:37:15.479Z,41.90
2022-10-10T15:42:35.561Z,41.70
2022-10-10T15:47:55.599Z,41.70
2022-10-10T15:53:15.678Z,41.60
2022-10-10T15:58:36.612Z,41.40
2022-10-10T16:03:56.624Z,41.40
2022-10-10T16:09:28.076Z,41.40
2022-10-10T16:14:48.884Z,41.10
2022-10-10T16:20:08.933Z,40.90
2022-10-10T16:25:29.148Z,40.80
2022-10-10T16:30:49.274Z,40.90
2022-10-10T16:36:09.489Z,41.00
2022-10-10T16:41:46.928Z,41.00
2022-10-10T16:47:08.100Z,41.50
2022-10-10T16:52:28.258Z,41.80
2022-10-10T16:57:48.535Z,41.90
2022-10-10T17:03:08.682Z,41.90
2022-10-10T17:08:28.855Z,42.40
2022-10-10T17:13:48.894Z,42.40
2022-10-10T17:19:09.067Z,42.40
2022-10-10T17:24:29.132Z,42.30
2022-10-10T17:29:49.669Z,42.10
2022-10-10T17:35:09.673Z,42.00
2022-10-10T17:40:29.907Z,41.90
2022-10-10T17:45:50.003Z,42.00
2022-10-10T17:51:10.174Z,42.10
2022-10-10T17:56:30.281Z,42.00
2022-10-10T18:01:50.556Z,41.70
2022-10-10T18:07:10.783Z,41.60
2022-10-10T18:12:30.871Z,41.70
2022-10-10T18:17:50.984Z,41.70
2022-10-10T18:23:11.043Z,41.70
2022-10-10T18:28:31.248Z,41.70
2022-10-10T18:33:51.476Z,41.80
2022-10-10T18:39:11.744Z,41.80
2022-10-10T18:44:31.852Z,41.80
2022-10-10T18:49:51.946Z,41.80
2022-10-10T18:55:16.771Z,41.90
2022-10-10T19:00:37.723Z,41.90
2022-10-10T19:05:57.833Z,41.90
2022-10-10T19:11:17.813Z,41.90
2022-10-10T19:16:38.018Z,41.90
2022-10-10T19:21:58.057Z,41.90
2022-10-10T19:27:18.212Z,42.00
2022-10-10T19:32:38.359Z,42.00
2022-10-10T19:37:58.517Z,42.00
2022-10-10T19:43:18.597Z,42.00
2022-10-10T19:48:38.741Z,42.00
2022-10-10T19:53:59.062Z,41.90
2022-10-10T19:59:19.232Z,41.90
2022-10-10T20:04:39.331Z,41.90
2022-10-10T20:09:59.547Z,41.90
2022-10-10T20:15:19.723Z,41.90
2022-10-10T20:20:39.958Z,42.00
2022-10-10T20:25:59.994Z,41.90
2022-10-10T20:31:20.369Z,42.00
2022-10-10T20:36:40.453Z,42.00
2022-10-10T20:42:00.637Z,42.00
2022-10-10T20:47:20.599Z,41.90
2022-10-10T20:52:40.650Z,42.00
2022-10-10T20:58:00.918Z,41.90
2022-10-10T21:03:21.098Z,41.90
2022-10-10T21:08:41.183Z,41.90
2022-10-10T21:14:01.397Z,41.90
2022-10-10T21:19:21.516Z,41.90
2022-10-10T21:24:41.651Z,41.90
2022-10-10T21:30:01.685Z,41.90
2022-10-10T21:35:21.871Z,41.90
2022-10-10T21:40:42.084Z,41.90
2022-10-10T21:46:02.598Z,41.90
2022-10-10T21:51:22.833Z,41.90
2022-10-10T21:56:43.062Z,41.90
2022-10-10T22:02:03.151Z,42.00
2022-10-10T22:07:23.242Z,42.00
2022-10-10T22:12:43.414Z,41.90
2022-10-10T22:18:03.488Z,42.00
2022-10-10T22:23:23.647Z,41.90
2022-10-10T22:28:43.883Z,42.00
2022-10-10T22:34:04.012Z,42.00
2022-10-10T22:39:24.202Z,42.00
2022-10-10T22:44:44.320Z,41.90
2022-10-10T22:50:04.432Z,41.90
2022-10-10T22:55:25.240Z,41.90
2022-10-10T23:00:45.383Z,41.90
2022-10-10T23:06:05.768Z,41.90
2022-10-10T23:11:26.207Z,42.00
2022-10-10T23:16:46.249Z,42.00
2022-10-10T23:22:06.372Z,42.00
2022-10-10T23:27:26.630Z,42.00
2022-10-10T23:32:46.743Z,41.80
2022-10-10T23:38:06.922Z,41.80
2022-10-10T23:43:26.981Z,41.80
2022-10-10T23:48:47.094Z,41.80
2022-10-10T23:54:07.290Z,41.90
2022-10-10T23:59:27.554Z,41.80
